Time;durP1;ratioP1;P1;durP2;ratioP2;P2;SDS_P1;SDS_P2;PMS_P1;PMS_P2;Temp;Humidity;BMP_temperature;BMP_pressure;BME280_temperature;BME280_humidity;BME280_pressure;Samples;Min_cycle;Max_cycle;Signal;HPM_P1;HPM_P2
2021/01/29 00:00:24;;;;;;;20.58;13.40;;;7.50;97.10;;;;;;5051882;28;20439;-75
2021/01/29 00:02:54;;;;;;;21.70;14.00;;;7.50;97.50;;;;;;5057991;28;20399;-76
2021/01/29 00:05:21;;;;;;;21.48;13.75;;;7.50;98.30;;;;;;5053807;28;20420;-75
2021/01/29 00:07:47;;;;;;;22.52;15.00;;;7.60;97.80;;;;;;5052016;28;20373;-75
2021/01/29 00:10:13;;;;;;;26.13;15.90;;;7.60;98.00;;;;;;5059854;28;20384;-74
2021/01/29 00:12:39;;;;;;;22.52;15.13;;;7.60;97.80;;;;;;5072192;28;20809;-74
2021/01/29 00:15:10;;;;;;;24.45;15.10;;;7.60;99.30;;;;;;5071938;28;20466;-74
2021/01/29 00:17:36;;;;;;;29.63;15.10;;;7.60;98.20;;;;;;5072912;28;20868;-75
2021/01/29 00:20:04;;;;;;;23.90;15.10;;;7.70;99.30;;;;;;5061173;28;20442;-75
2021/01/29 00:22:30;;;;;;;27.53;16.20;;;7.70;99.20;;;;;;5053573;28;20412;-73
2021/01/29 00:24:55;;;;;;;26.20;14.90;;;7.70;99.90;;;;;;5052782;28;20385;-74
2021/01/29 00:27:21;;;;;;;24.07;15.70;;;7.70;99.90;;;;;;5050754;28;20378;-75
2021/01/29 00:29:46;;;;;;;21.87;14.63;;;7.80;99.80;;;;;;5050586;28;20397;-73
2021/01/29 00:32:12;;;;;;;26.37;15.63;;;7.90;99.30;;;;;;5050500;28;20386;-73
2021/01/29 00:34:37;;;;;;;28.70;16.13;;;7.80;99.50;;;;;;5051060;28;20436;-73
2021/01/29 00:37:03;;;;;;;20.47;15.10;;;7.80;99.50;;;;;;5070483;28;20387;-72
2021/01/29 00:39:29;;;;;;;27.37;14.60;;;7.80;99.60;;;;;;5070309;28;20422;-75
2021/01/29 00:41:54;;;;;;;25.33;15.03;;;7.80;99.50;;;;;;5070743;28;20407;-74
2021/01/29 00:44:20;;;;;;;28.40;15.40;;;7.90;99.20;;;;;;5071058;28;20490;-76
2021/01/29 00:46:45;;;;;;;26.60;16.10;;;7.80;98.90;;;;;;5067244;28;20476;-73
2021/01/29 00:49:11;;;;;;;25.97;15.13;;;7.80;99.00;;;;;;5051382;28;20393;-77
2021/01/29 00:51:37;;;;;;;26.27;15.53;;;7.80;99.40;;;;;;5053222;28;20417;-74
2021/01/29 00:54:02;;;;;;;27.57;15.07;;;7.80;99.70;;;;;;5054169;28;20419;-73
2021/01/29 00:56:28;;;;;;;24.93;14.60;;;7.80;99.90;;;;;;5054140;28;20420;-76
2021/01/29 00:58:53;;;;;;;24.17;14.23;;;7.80;99.90;;;;;;5052391;28;20397;-77
2021/01/29 01:01:19;;;;;;;28.00;14.83;;;7.90;99.90;;;;;;5050702;28;20416;-74
2021/01/29 01:03:44;;;;;;;22.20;14.47;;;8.00;99.90;;;;;;5060027;28;20412;-74
2021/01/29 01:06:10;;;;;;;26.43;13.83;;;8.00;99.90;;;;;;5050230;28;20381;-73
2021/01/29 01:08:36;;;;;;;30.15;14.73;;;8.00;99.90;;;;;;5050120;28;20386;-74
2021/01/29 01:11:02;;;;;;;28.30;14.23;;;8.10;99.90;;;;;;5049906;28;20392;-74
2021/01/29 01:13:28;;;;;;;25.88;14.32;;;8.10;99.90;;;;;;5052237;28;20389;-75
2021/01/29 01:15:53;;;;;;;31.10;14.57;;;8.10;99.90;;;;;;5052427;28;20458;-75
2021/01/29 01:18:19;;;;;;;31.08;15.68;;;8.10;99.90;;;;;;5051305;28;20811;-75
2021/01/29 01:20:45;;;;;;;29.33;14.18;;;8.20;99.90;;;;;;5051520;28;20752;-74
2021/01/29 01:23:10;;;;;;;29.65;13.80;;;8.20;99.90;;;;;;5052103;28;20400;-74
2021/01/29 01:25:36;;;;;;;30.30;14.17;;;8.30;99.90;;;;;;5053716;28;20433;-74
2021/01/29 01:28:01;;;;;;;27.90;14.50;;;8.30;99.70;;;;;;5057821;28;20377;-73
2021/01/29 01:30:34;;;;;;;28.17;13.57;;;8.30;99.40;;;;;;5056759;28;20385;-73
2021/01/29 01:33:00;;;;;;;33.63;13.90;;;8.30;99.90;;;;;;5057908;28;20480;-75
2021/01/29 01:35:26;;;;;;;25.20;13.73;;;8.30;99.90;;;;;;5062040;28;20491;-74
2021/01/29 01:37:52;;;;;;;28.58;14.25;;;8.30;99.90;;;;;;5074604;28;20534;-74
2021/01/29 01:40:22;;;;;;;33.60;14.07;;;8.40;99.30;;;;;;5075554;28;20387;-75
2021/01/29 01:42:47;;;;;;;24.90;13.38;;;8.30;99.60;;;;;;5077250;28;20403;-74
2021/01/29 01:45:28;;;;;;;32.25;14.57;;;8.40;99.30;;;;;;5062067;28;20914;-74
2021/01/29 01:48:03;;;;;;;28.55;13.70;;;8.40;99.70;;;;;;5053642;28;20424;-75
2021/01/29 01:50:35;;;;;;;25.98;13.40;;;8.40;99.50;;;;;;5051979;28;20459;-75
2021/01/29 01:53:04;;;;;;;28.02;13.30;;;8.40;99.50;;;;;;5053438;28;20434;-75
2021/01/29 01:55:37;;;;;;;32.00;14.50;;;8.40;99.90;;;;;;5053288;28;20392;-72
2021/01/29 01:58:05;;;;;;;23.23;14.50;;;8.40;99.90;;;;;;5053323;28;20381;-73
2021/01/29 02:00:32;;;;;;;27.80;13.98;;;8.40;99.90;;;;;;5053113;28;20386;-75
2021/01/29 02:03:16;;;;;;;29.55;14.15;;;8.40;99.90;;;;;;5060793;28;20728;-72
2021/01/29 02:05:42;;;;;;;29.25;14.50;;;8.40;99.90;;;;;;5053308;28;20413;-74
2021/01/29 02:08:10;;;;;;;30.17;13.55;;;8.40;99.90;;;;;;5053367;28;20465;-76
2021/01/29 02:10:36;;;;;;;34.55;14.48;;;8.40;99.90;;;;;;5064088;28;20403;-74
2021/01/29 02:13:04;;;;;;;31.98;14.07;;;8.40;99.90;;;;;;5073505;28;20594;-73
2021/01/29 02:15:33;;;;;;;30.88;14.23;;;8.40;99.90;;;;;;5060352;28;20993;-73
2021/01/29 02:18:23;;;;;;;25.88;13.10;;;8.40;99.90;;;;;;5059517;28;20431;-74
2021/01/29 02:21:23;;;;;;;28.57;12.60;;;8.50;99.90;;;;;;5058201;28;20412;-73
2021/01/29 02:24:19;;;;;;;29.80;14.00;;;8.50;99.90;;;;;;5056636;28;20388;-74
2021/01/29 02:27:06;;;;;;;28.95;14.60;;;8.40;99.90;;;;;;5059447;28;20377;-74
2021/01/29 02:30:02;;;;;;;27.88;14.30;;;8.40;99.90;;;;;;5058696;28;20798;-74
2021/01/29 02:32:52;;;;;;;26.25;13.85;;;8.50;99.90;;;;;;5059093;28;20393;-73
2021/01/29 02:35:55;;;;;;;32.17;14.52;;;8.40;99.90;;;;;;5060729;28;20392;-73
2021/01/29 02:39:05;;;;;;;20.00;13.30;;;8.40;99.90;;;;;;5051492;28;20381;-73
2021/01/29 02:41:42;;;;;;;22.33;13.27;;;8.50;99.90;;;;;;5052541;28;20460;-75
2021/01/29 02:44:35;;;;;;;21.80;12.43;;;8.50;99.90;;;;;;5052290;28;20393;-73
2021/01/29 02:47:08;;;;;;;23.23;12.73;;;8.50;99.90;;;;;;5052511;28;20365;-73
2021/01/29 02:49:59;;;;;;;17.20;11.30;;;8.50;99.90;;;;;;5052206;28;20382;-73
2021/01/29 02:52:48;;;;;;;16.65;11.52;;;8.60;99.90;;;;;;5052184;28;20381;-73
2021/01/29 02:55:33;;;;;;;19.05;11.00;;;8.60;99.90;;;;;;5072162;28;20396;-73
2021/01/29 02:58:14;;;;;;;17.08;10.63;;;8.60;99.90;;;;;;5072696;28;20410;-74
2021/01/29 03:00:47;;;;;;;13.05;9.63;;;8.60;99.90;;;;;;5071840;28;20521;-73
2021/01/29 03:03:17;;;;;;;15.52;10.00;;;8.70;99.90;;;;;;5065897;28;20897;-72
2021/01/29 03:06:11;;;;;;;13.82;9.43;;;8.70;99.90;;;;;;5072304;28;20398;-73
2021/01/29 03:08:52;;;;;;;14.82;9.65;;;8.70;99.90;;;;;;5064371;28;20391;-73
2021/01/29 03:11:25;;;;;;;19.30;10.18;;;8.80;99.90;;;;;;5053618;28;20412;-73
2021/01/29 03:13:56;;;;;;;12.97;9.03;;;8.80;99.90;;;;;;5052380;28;20444;-74
2021/01/29 03:16:27;;;;;;;18.42;11.20;;;8.80;99.90;;;;;;5050825;28;20389;-74
2021/01/29 03:19:01;;;;;;;19.10;10.70;;;8.80;99.90;;;;;;5051697;28;20490;-73
2021/01/29 03:21:37;;;;;;;18.20;9.88;;;8.90;99.90;;;;;;5051702;28;20416;-73
2021/01/29 03:24:14;;;;;;;15.30;9.50;;;8.80;99.90;;;;;;5051477;28;20428;-74
2021/01/29 03:26:58;;;;;;;15.45;9.40;;;8.80;99.90;;;;;;5051639;28;20388;-73
2021/01/29 03:29:28;;;;;;;16.77;10.23;;;8.90;99.90;;;;;;5051404;28;20381;-73
2021/01/29 03:31:59;;;;;;;18.65;10.15;;;8.90;99.90;;;;;;5051333;28;20456;-73
2021/01/29 03:34:37;;;;;;;17.13;10.13;;;8.80;99.90;;;;;;5049842;28;20423;-74
2021/01/29 03:37:09;;;;;;;16.95;9.25;;;8.80;99.90;;;;;;5071436;28;20749;-73
2021/01/29 03:39:38;;;;;;;15.15;9.32;;;8.90;99.90;;;;;;5074026;28;20470;-74
2021/01/29 03:42:25;;;;;;;16.98;9.57;;;8.90;99.90;;;;;;5077680;28;20428;-74
2021/01/29 03:45:14;;;;;;;14.55;9.80;;;8.90;99.90;;;;;;5059147;28;20395;-73
2021/01/29 03:47:55;;;;;;;21.90;10.00;;;8.90;99.90;;;;;;5058288;28;20381;-73
2021/01/29 03:50:28;;;;;;;15.68;9.70;;;9.00;99.90;;;;;;5056316;28;20382;-74
2021/01/29 03:53:15;;;;;;;20.25;11.18;;;8.90;99.90;;;;;;5058046;28;20859;-73
2021/01/29 03:55:46;;;;;;;20.38;10.38;;;8.90;99.90;;;;;;5051217;28;20455;-73
2021/01/29 03:58:33;;;;;;;22.02;10.48;;;8.90;99.90;;;;;;5051068;28;20385;-73
2021/01/29 04:01:25;;;;;;;18.30;10.70;;;8.80;99.90;;;;;;5050882;28;20432;-73
2021/01/29 04:03:59;;;;;;;17.92;10.68;;;8.80;99.90;;;;;;5059837;28;20388;-73
2021/01/29 04:06:34;;;;;;;20.60;10.38;;;8.80;99.90;;;;;;5071024;28;20372;-72
2021/01/29 04:09:15;;;;;;;18.05;9.80;;;9.00;99.90;;;;;;5070702;28;20746;-73
2021/01/29 04:11:49;;;;;;;18.35;10.18;;;9.10;99.90;;;;;;5050902;28;20880;-74
2021/01/29 04:14:44;;;;;;;22.60;11.00;;;9.00;99.90;;;;;;5053182;28;20402;-73
2021/01/29 04:17:15;;;;;;;22.52;10.60;;;9.00;99.90;;;;;;5050882;28;20443;-75
2021/01/29 04:19:44;;;;;;;19.42;10.30;;;9.00;99.90;;;;;;5050616;28;20394;-73
2021/01/29 04:22:16;;;;;;;22.70;10.88;;;9.00;99.90;;;;;;5050513;28;20944;-73
2021/01/29 04:24:59;;;;;;;20.02;10.57;;;9.00;99.90;;;;;;5050822;28;20451;-73
2021/01/29 04:27:32;;;;;;;19.70;10.35;;;9.00;99.90;;;;;;5050602;28;20413;-73
2021/01/29 04:30:08;;;;;;;19.67;11.05;;;9.10;99.90;;;;;;5050481;28;20392;-73
2021/01/29 04:32:45;;;;;;;17.15;11.05;;;9.00;99.90;;;;;;5050545;28;20429;-74
2021/01/29 04:35:15;;;;;;;23.67;11.07;;;9.00;99.90;;;;;;5068240;28;20399;-73
2021/01/29 04:37:59;;;;;;;16.15;10.40;;;8.90;99.90;;;;;;5070754;28;20433;-72
2021/01/29 04:40:29;;;;;;;20.33;9.82;;;8.90;99.90;;;;;;5070406;28;20395;-74
2021/01/29 04:43:05;;;;;;;13.02;9.10;;;9.00;99.90;;;;;;5069514;28;20404;-74
2021/01/29 04:46:04;;;;;;;17.50;9.10;;;9.10;99.90;;;;;;5050642;28;20393;-74
2021/01/29 04:48:50;;;;;;;17.38;9.25;;;9.00;99.90;;;;;;5066658;28;20878;-76
2021/01/29 04:51:53;;;;;;;19.83;10.15;;;9.00;99.90;;;;;;5051804;28;20770;-74
2021/01/29 04:54:30;;;;;;;18.83;10.20;;;9.00;99.90;;;;;;5030879;28;20432;-74
2021/01/29 04:57:32;;;;;;;20.02;10.60;;;9.00;99.90;;;;;;5053198;28;20458;-76
2021/01/29 05:00:37;;;;;;;20.90;10.03;;;9.00;99.90;;;;;;5053542;28;20392;-75
2021/01/29 05:03:15;;;;;;;14.77;9.50;;;9.00;99.90;;;;;;5062982;28;20399;-73
2021/01/29 05:05:40;;;;;;;18.50;10.43;;;9.10;99.90;;;;;;5058707;28;20871;-75
2021/01/29 05:08:25;;;;;;;17.83;10.23;;;9.20;99.90;;;;;;5061042;28;20389;-73
2021/01/29 05:11:13;;;;;;;15.13;10.10;;;9.20;99.90;;;;;;5077604;28;20721;-72
2021/01/29 05:14:18;;;;;;;18.23;10.77;;;9.10;99.90;;;;;;5090327;28;20895;-71
2021/01/29 05:16:57;;;;;;;17.15;10.15;;;9.10;99.90;;;;;;5078545;28;20368;-72
2021/01/29 05:19:52;;;;;;;19.25;11.40;;;9.10;99.90;;;;;;5078658;28;20455;-73
2021/01/29 05:22:39;;;;;;;19.63;11.05;;;9.00;99.90;;;;;;5073580;28;20484;-73
2021/01/29 05:25:07;;;;;;;18.10;10.85;;;9.00;99.90;;;;;;5075935;28;20377;-73
2021/01/29 05:27:58;;;;;;;16.65;11.13;;;9.00;99.90;;;;;;5070762;28;20381;-74
2021/01/29 05:30:23;;;;;;;16.17;10.82;;;9.00;99.90;;;;;;5070907;28;20449;-74
2021/01/29 05:33:28;;;;;;;14.47;10.67;;;9.00;99.90;;;;;;5070178;28;20385;-74
2021/01/29 05:36:29;;;;;;;16.40;10.35;;;9.00;99.90;;;;;;5051830;28;20839;-73
2021/01/29 05:39:03;;;;;;;16.02;10.20;;;9.00;99.90;;;;;;5077756;28;20383;-73
2021/01/29 05:41:47;;;;;;;14.98;9.38;;;9.00;99.90;;;;;;5080638;28;20421;-74
2021/01/29 05:44:32;;;;;;;15.35;9.52;;;9.00;99.90;;;;;;5079235;28;20387;-73
2021/01/29 05:47:31;;;;;;;16.30;10.10;;;9.00;99.90;;;;;;5073793;28;20437;-73
2021/01/29 05:50:21;;;;;;;15.43;9.60;;;9.00;99.90;;;;;;5074093;28;20730;-73
2021/01/29 05:53:25;;;;;;;18.27;9.10;;;9.00;99.90;;;;;;5073903;28;20388;-73
2021/01/29 05:55:59;;;;;;;11.90;8.60;;;9.10;99.90;;;;;;5053609;28;20455;-74
2021/01/29 05:59:03;;;;;;;13.52;8.80;;;9.20;99.90;;;;;;5052181;28;20473;-72
2021/01/29 06:01:57;;;;;;;18.38;9.63;;;9.20;99.90;;;;;;5053236;28;20432;-73
2021/01/29 06:04:34;;;;;;;15.68;9.30;;;9.20;99.90;;;;;;5068810;28;20385;-73
2021/01/29 06:07:44;;;;;;;13.30;8.60;;;9.20;99.90;;;;;;5072953;28;20738;-73
2021/01/29 06:10:22;;;;;;;13.35;8.68;;;9.30;99.90;;;;;;4974796;28;20870;-75
2021/01/29 06:12:57;;;;;;;13.48;8.30;;;9.30;99.90;;;;;;5060528;28;20427;-74
2021/01/29 06:15:49;;;;;;;12.63;7.90;;;9.50;99.90;;;;;;5077561;28;20383;-73
2021/01/29 06:18:21;;;;;;;5.07;4.20;;;9.50;99.90;;;;;;5074247;28;20395;-74
2021/01/29 06:20:46;;;;;;;5.70;4.22;;;9.70;99.90;;;;;;5074326;28;20417;-75
2021/01/29 06:23:33;;;;;;;6.40;4.33;;;9.70;99.90;;;;;;5062814;28;20476;-73
2021/01/29 06:26:36;;;;;;;3.83;3.53;;;9.80;99.90;;;;;;5059076;28;20374;-74
2021/01/29 06:29:19;;;;;;;5.10;3.45;;;9.90;99.10;;;;;;5059524;28;20442;-74
2021/01/29 06:32:00;;;;;;;3.97;3.00;;;9.80;99.60;;;;;;5060977;28;20429;-75
2021/01/29 06:34:53;;;;;;;3.10;2.90;;;9.90;98.50;;;;;;5078092;28;20495;-73
2021/01/29 06:37:56;;;;;;;4.40;2.25;;;9.90;98.50;;;;;;5057034;28;20393;-75
2021/01/29 06:40:32;;;;;;;2.70;2.40;;;9.90;94.30;;;;;;5053513;28;20405;-73
2021/01/29 06:43:37;;;;;;;2.50;2.40;;;10.00;91.20;;;;;;5055815;28;20417;-76
2021/01/29 06:46:20;;;;;;;2.17;1.98;;;10.10;89.20;;;;;;5055180;28;20381;-73
2021/01/29 06:49:19;;;;;;;2.40;2.30;;;10.00;89.20;;;;;;5055349;28;20848;-74
2021/01/29 06:52:22;;;;;;;2.50;2.30;;;10.10;86.50;;;;;;5056280;28;20389;-73
2021/01/29 06:55:02;;;;;;;2.78;2.58;;;10.10;84.10;;;;;;5076890;28;20414;-75
2021/01/29 06:57:45;;;;;;;2.38;2.28;;;10.20;83.00;;;;;;5077706;28;20466;-73
2021/01/29 07:00:38;;;;;;;3.10;2.80;;;10.20;82.80;;;;;;5074593;28;20387;-74
2021/01/29 07:03:30;;;;;;;2.50;2.40;;;10.20;83.00;;;;;;5071632;28;20487;-74
2021/01/29 07:06:16;;;;;;;2.87;2.67;;;10.20;82.70;;;;;;5057165;28;20799;-73
2021/01/29 07:08:48;;;;;;;3.80;3.00;;;10.20;83.40;;;;;;5063878;28;20466;-74
2021/01/29 07:11:34;;;;;;;3.07;2.83;;;10.20;84.70;;;;;;5078588;28;20418;-74
2021/01/29 07:14:14;;;;;;;3.20;3.10;;;10.10;84.70;;;;;;5055305;28;20390;-72
2021/01/29 07:17:13;;;;;;;3.57;3.27;;;10.10;85.20;;;;;;5054155;28;20488;-75
2021/01/29 07:19:57;;;;;;;4.05;3.75;;;10.10;86.40;;;;;;5055498;28;20774;-74
2021/01/29 07:23:04;;;;;;;4.05;3.72;;;10.00;86.50;;;;;;5055003;28;20421;-74
2021/01/29 07:25:53;;;;;;;4.30;4.00;;;10.00;86.20;;;;;;5056429;28;20417;-73
2021/01/29 07:28:53;;;;;;;5.10;4.70;;;10.00;87.60;;;;;;5058895;28;20382;-72
2021/01/29 07:31:50;;;;;;;5.82;4.80;;;10.00;86.40;;;;;;5068743;28;20404;-72
2021/01/29 07:34:29;;;;;;;7.97;4.90;;;10.10;85.30;;;;;;5078591;28;20384;-75
2021/01/29 07:37:03;;;;;;;5.75;5.25;;;10.10;86.50;;;;;;5071109;28;20387;-73
2021/01/29 07:39:50;;;;;;;5.67;5.17;;;10.10;86.40;;;;;;5071183;28;20400;-73
2021/01/29 07:42:49;;;;;;;5.50;5.00;;;10.10;84.90;;;;;;5051554;28;20417;-73
2021/01/29 07:45:45;;;;;;;5.80;5.30;;;10.20;83.90;;;;;;5051248;28;20426;-72
2021/01/29 07:48:17;;;;;;;7.40;5.50;;;10.20;84.40;;;;;;5050417;28;20496;-73
2021/01/29 07:50:57;;;;;;;7.25;5.15;;;10.20;85.40;;;;;;5055202;28;20461;-73
2021/01/29 07:53:57;;;;;;;10.80;5.45;;;10.20;84.10;;;;;;5064466;28;20505;-73
2021/01/29 07:56:41;;;;;;;10.40;5.80;;;10.30;83.70;;;;;;5056954;28;20451;-73
2021/01/29 07:59:31;;;;;;;5.32;4.82;;;10.30;84.90;;;;;;5063512;28;20454;-72
2021/01/29 08:02:33;;;;;;;6.63;5.63;;;10.20;84.90;;;;;;5068018;28;20408;-72
2021/01/29 08:05:23;;;;;;;7.90;5.60;;;10.10;87.40;;;;;;5067524;28;20385;-72
2021/01/29 08:07:56;;;;;;;8.23;6.18;;;10.10;87.90;;;;;;5054757;28;20465;-75
2021/01/29 08:10:31;;;;;;;7.83;5.40;;;10.10;89.00;;;;;;5065503;28;20395;-73
2021/01/29 08:13:09;;;;;;;7.43;5.07;;;10.10;88.00;;;;;;5058034;28;20882;-75
2021/01/29 08:15:55;;;;;;;9.52;5.18;;;10.10;85.10;;;;;;5056868;28;20397;-74
2021/01/29 08:18:38;;;;;;;10.63;5.50;;;10.20;85.00;;;;;;5058199;28;20432;-74
2021/01/29 08:21:39;;;;;;;10.15;4.82;;;10.20;85.10;;;;;;5075754;28;20406;-73
2021/01/29 08:24:16;;;;;;;7.32;3.70;;;10.30;83.70;;;;;;5066928;28;20407;-75
2021/01/29 08:27:06;;;;;;;7.10;4.40;;;10.30;83.10;;;;;;5071496;28;20526;-73
2021/01/29 08:29:32;;;;;;;5.05;3.50;;;10.30;82.00;;;;;;5059598;28;20394;-73
2021/01/29 08:32:16;;;;;;;13.15;4.47;;;10.30;81.90;;;;;;5053456;28;20748;-73
2021/01/29 08:34:59;;;;;;;10.32;4.70;;;10.40;80.70;;;;;;5054900;28;20799;-74
2021/01/29 08:37:41;;;;;;;12.23;5.90;;;10.40;80.40;;;;;;5057036;28;20708;-73
2021/01/29 08:40:20;;;;;;;13.02;5.80;;;10.40;80.30;;;;;;5072953;28;20950;-75
2021/01/29 08:43:00;;;;;;;18.23;6.70;;;10.40;79.70;;;;;;5057804;28;20489;-74
2021/01/29 08:45:35;;;;;;;12.38;7.00;;;10.40;78.20;;;;;;5055154;28;20470;-74
2021/01/29 08:48:12;;;;;;;22.00;8.07;;;10.40;78.10;;;;;;5054291;28;20401;-73
2021/01/29 08:51:07;;;;;;;21.63;8.23;;;10.50;78.80;;;;;;5055887;28;20464;-76
2021/01/29 08:53:38;;;;;;;22.15;8.40;;;10.50;77.20;;;;;;5054079;28;20783;-74
2021/01/29 08:56:10;;;;;;;20.50;7.35;;;10.50;78.20;;;;;;5049133;28;20832;-74
2021/01/29 08:58:44;;;;;;;25.08;7.22;;;10.50;76.10;;;;;;5062077;28;20399;-74
2021/01/29 09:01:33;;;;;;;23.48;7.00;;;10.50;76.20;;;;;;5067849;28;20900;-73
2021/01/29 09:04:19;;;;;;;27.05;8.10;;;10.50;74.00;;;;;;5064298;28;20403;-75
2021/01/29 09:06:46;;;;;;;28.77;7.03;;;10.50;73.50;;;;;;5069624;28;20383;-74
2021/01/29 09:09:44;;;;;;;24.92;6.90;;;10.50;73.10;;;;;;5051938;28;20408;-74
2021/01/29 09:12:24;;;;;;;31.45;7.47;;;10.50;71.90;;;;;;5004052;28;20736;-73
2021/01/29 09:15:03;;;;;;;28.03;6.70;;;10.50;69.50;;;;;;5049784;28;20427;-76
2021/01/29 09:17:47;;;;;;;28.27;6.77;;;10.50;69.20;;;;;;5052442;28;20401;-76
2021/01/29 09:20:21;;;;;;;25.70;7.30;;;10.50;68.60;;;;;;5069701;28;20563;-74
2021/01/29 09:23:04;;;;;;;26.08;7.63;;;10.50;69.00;;;;;;5055029;28;20492;-74
2021/01/29 09:25:50;;;;;;;24.23;7.95;;;10.40;70.60;;;;;;5049865;28;20431;-72
2021/01/29 09:28:36;;;;;;;29.58;7.68;;;10.30;71.00;;;;;;5068874;28;20430;-74
2021/01/29 09:31:11;;;;;;;31.55;7.97;;;10.30;71.20;;;;;;5056171;28;20464;-72
2021/01/29 09:33:52;;;;;;;29.75;7.25;;;10.30;68.90;;;;;;5048820;28;20401;-74
2021/01/29 09:36:25;;;;;;;35.05;7.05;;;10.30;68.60;;;;;;5060393;28;20412;-73
2021/01/29 09:39:16;;;;;;;27.40;7.45;;;10.30;67.90;;;;;;5049383;28;20734;-73
2021/01/29 09:41:53;;;;;;;30.02;7.38;;;10.30;67.60;;;;;;5065749;28;20789;-72
2021/01/29 09:44:38;;;;;;;31.85;7.15;;;10.50;65.30;;;;;;5054665;28;20551;-74
2021/01/29 09:47:05;;;;;;;26.92;6.70;;;10.50;62.20;;;;;;5056516;28;20483;-75
2021/01/29 09:49:37;;;;;;;30.47;7.33;;;10.60;60.80;;;;;;5051923;28;20757;-72
2021/01/29 09:52:28;;;;;;;29.50;7.47;;;10.70;60.30;;;;;;5072923;28;20384;-75
2021/01/29 09:55:16;;;;;;;28.27;7.93;;;10.80;59.00;;;;;;5067817;28;20404;-74
2021/01/29 09:57:58;;;;;;;39.13;7.95;;;10.90;58.60;;;;;;5053437;28;20381;-72
2021/01/29 10:00:31;;;;;;;32.72;7.20;;;11.00;57.90;;;;;;5058799;28;20405;-74
2021/01/29 10:03:22;;;;;;;24.60;7.18;;;11.00;57.90;;;;;;5070755;28;20827;-76
2021/01/29 10:05:56;;;;;;;29.77;6.90;;;11.10;56.00;;;;;;5074215;28;20980;-75
2021/01/29 10:08:58;;;;;;;28.47;6.77;;;11.20;55.80;;;;;;5079207;28;20387;-74
2021/01/29 10:11:29;;;;;;;20.05;6.47;;;11.20;54.50;;;;;;5019679;28;20836;-77
2021/01/29 10:14:03;;;;;;;31.90;6.80;;;11.30;54.20;;;;;;5058838;28;20420;-74
2021/01/29 10:16:39;;;;;;;27.33;6.80;;;11.20;54.00;;;;;;5067308;28;20416;-73
2021/01/29 10:19:20;;;;;;;24.92;5.70;;;11.10;54.90;;;;;;5056424;28;20425;-73
2021/01/29 10:21:57;;;;;;;28.02;6.57;;;11.10;54.10;;;;;;5057408;28;20401;-74
2021/01/29 10:24:55;;;;;;;30.05;7.50;;;11.00;55.50;;;;;;5056105;28;20402;-72
2021/01/29 10:27:40;;;;;;;27.98;6.45;;;11.00;54.50;;;;;;5055325;28;20489;-72
2021/01/29 10:30:21;;;;;;;20.83;6.70;;;11.00;54.50;;;;;;5054289;28;20393;-73
2021/01/29 10:32:59;;;;;;;32.20;7.68;;;11.10;54.50;;;;;;5054738;28;20457;-77
2021/01/29 10:35:31;;;;;;;33.15;10.65;;;11.20;54.50;;;;;;5062292;28;20931;-76
2021/01/29 10:38:09;;;;;;;29.88;7.60;;;11.20;53.40;;;;;;5054193;28;20491;-77
2021/01/29 10:40:45;;;;;;;22.70;6.78;;;11.20;53.00;;;;;;5052750;28;20464;-75
2021/01/29 10:43:32;;;;;;;27.47;6.40;;;11.20;52.20;;;;;;5071147;28;20504;-76
2021/01/29 10:46:15;;;;;;;26.73;7.28;;;11.30;52.10;;;;;;5052721;28;20405;-74
2021/01/29 10:48:54;;;;;;;24.95;6.35;;;11.30;51.90;;;;;;5051556;28;20394;-72
2021/01/29 10:51:55;;;;;;;27.73;7.57;;;11.50;52.50;;;;;;5059573;28;20443;-72
2021/01/29 10:54:23;;;;;;;27.73;8.10;;;11.50;50.10;;;;;;5072141;28;20491;-72
2021/01/29 10:57:01;;;;;;;27.52;6.78;;;11.50;50.60;;;;;;5057061;28;20910;-71
2021/01/29 10:59:43;;;;;;;26.67;6.88;;;11.60;48.80;;;;;;5051000;28;20484;-71
2021/01/29 11:02:13;;;;;;;28.38;6.45;;;11.60;50.00;;;;;;5067741;28;20416;-71
2021/01/29 11:04:51;;;;;;;34.30;7.25;;;11.70;49.90;;;;;;5060048;28;20420;-71
2021/01/29 11:07:25;;;;;;;22.42;6.13;;;11.70;49.20;;;;;;5050079;28;20928;-72
2021/01/29 11:10:07;;;;;;;28.83;6.43;;;11.60;48.20;;;;;;5056091;28;20624;-73
2021/01/29 11:12:38;;;;;;;30.48;7.00;;;11.60;48.40;;;;;;5053377;28;20401;-72
2021/01/29 11:15:13;;;;;;;25.75;6.25;;;11.60;48.80;;;;;;5054620;28;20378;-71
2021/01/29 11:17:44;;;;;;;25.98;6.07;;;11.70;48.30;;;;;;5068165;28;20408;-72
2021/01/29 11:20:17;;;;;;;24.70;5.70;;;11.80;47.00;;;;;;5073104;28;20392;-72
2021/01/29 11:23:02;;;;;;;23.80;5.88;;;11.90;46.00;;;;;;5053807;28;20417;-72
2021/01/29 11:25:53;;;;;;;22.95;5.90;;;11.90;44.50;;;;;;5052400;28;20413;-71
2021/01/29 11:28:29;;;;;;;32.55;7.30;;;11.90;45.50;;;;;;5053482;28;20382;-72
2021/01/29 11:31:16;;;;;;;32.63;7.10;;;12.00;44.70;;;;;;5056753;28;20831;-73
2021/01/29 11:33:46;;;;;;;24.23;6.10;;;11.90;45.40;;;;;;5073722;28;20376;-73
2021/01/29 11:36:29;;;;;;;27.45;5.85;;;11.90;45.30;;;;;;5066174;28;20492;-72
2021/01/29 11:39:13;;;;;;;25.23;5.90;;;11.80;45.70;;;;;;5053406;28;20393;-71
2021/01/29 11:41:50;;;;;;;22.37;5.37;;;11.70;46.80;;;;;;5057055;28;20634;-75
2021/01/29 11:44:24;;;;;;;23.88;6.07;;;11.60;48.20;;;;;;5053495;28;20397;-73
2021/01/29 11:47:09;;;;;;;32.97;6.30;;;11.50;49.60;;;;;;5054498;28;20404;-72
2021/01/29 11:50:00;;;;;;;27.63;5.85;;;11.40;49.80;;;;;;5066634;28;20408;-73
2021/01/29 11:52:46;;;;;;;19.60;5.43;;;11.40;49.30;;;;;;5077974;28;20444;-72
2021/01/29 11:55:22;;;;;;;28.38;6.07;;;11.40;50.50;;;;;;5071286;28;20768;-71
2021/01/29 11:58:06;;;;;;;29.92;6.10;;;11.50;51.00;;;;;;5059164;28;20450;-73
2021/01/29 12:00:48;;;;;;;22.10;5.57;;;11.70;49.10;;;;;;5053061;28;20792;-73
2021/01/29 12:03:38;;;;;;;24.77;5.80;;;11.90;47.60;;;;;;5070381;28;20384;-72
2021/01/29 12:06:19;;;;;;;27.73;5.80;;;12.00;47.20;;;;;;5057772;28;20402;-74
2021/01/29 12:09:12;;;;;;;26.50;5.57;;;12.20;46.20;;;;;;5049895;28;20402;-73
2021/01/29 12:11:57;;;;;;;25.75;6.38;;;12.00;47.50;;;;;;5068841;28;20404;-74
2021/01/29 12:14:29;;;;;;;32.67;5.75;;;12.00;49.40;;;;;;5050216;28;20531;-72
2021/01/29 12:17:01;;;;;;;30.33;5.90;;;12.00;48.30;;;;;;5050657;28;20408;-72
2021/01/29 12:19:43;;;;;;;30.40;6.17;;;12.00;48.40;;;;;;5050282;28;20401;-73
2021/01/29 12:22:32;;;;;;;24.75;5.57;;;11.90;49.30;;;;;;5070147;28;20399;-72
2021/01/29 12:25:00;;;;;;;26.90;6.53;;;11.90;49.60;;;;;;5067819;28;20741;-72
2021/01/29 12:27:42;;;;;;;26.98;5.47;;;12.00;48.70;;;;;;5067675;28;20390;-72
2021/01/29 12:30:20;;;;;;;27.33;5.90;;;12.10;47.50;;;;;;5066460;28;20405;-73
2021/01/29 12:33:00;;;;;;;29.02;6.18;;;12.10;48.00;;;;;;5050551;28;20388;-72
2021/01/29 12:35:33;;;;;;;25.40;5.80;;;12.10;47.60;;;;;;5050938;28;20405;-72
2021/01/29 12:38:01;;;;;;;34.15;5.85;;;12.20;47.40;;;;;;5055564;28;20418;-72
2021/01/29 12:40:32;;;;;;;26.83;6.10;;;12.30;46.10;;;;;;5068038;28;20419;-73
2021/01/29 12:43:20;;;;;;;24.83;5.57;;;12.50;45.30;;;;;;5064790;28;20408;-73
2021/01/29 12:46:12;;;;;;;20.35;4.57;;;12.50;45.70;;;;;;5052840;28;20428;-72
2021/01/29 12:48:48;;;;;;;25.33;5.55;;;12.70;43.40;;;;;;5069380;28;20434;-72
2021/01/29 12:51:19;;;;;;;24.65;5.15;;;12.60;43.30;;;;;;5067631;28;20426;-73
2021/01/29 12:54:13;;;;;;;23.65;4.95;;;12.60;42.70;;;;;;5061860;28;20386;-72
2021/01/29 12:56:39;;;;;;;21.37;5.73;;;12.50;43.60;;;;;;5000611;28;20558;-72
2021/01/29 12:59:08;;;;;;;26.77;5.22;;;12.30;44.50;;;;;;5068525;28;20892;-71
2021/01/29 13:01:34;;;;;;;22.83;5.05;;;12.30;44.20;;;;;;5070227;28;20477;-73
2021/01/29 13:04:31;;;;;;;21.40;4.68;;;12.20;44.20;;;;;;5065021;28;20385;-73
2021/01/29 13:07:09;;;;;;;16.50;3.80;;;12.10;43.10;;;;;;5063926;28;20422;-74
2021/01/29 13:09:35;;;;;;;11.10;2.88;;;11.90;44.70;;;;;;5064805;28;20435;-72
2021/01/29 13:12:03;;;;;;;11.10;2.70;;;11.70;44.90;;;;;;5066539;28;20458;-72
2021/01/29 13:14:36;;;;;;;10.00;2.50;;;11.40;47.50;;;;;;5071967;28;20382;-72
2021/01/29 13:17:20;;;;;;;11.75;2.60;;;11.20;49.30;;;;;;5068088;28;20411;-73
2021/01/29 13:19:55;;;;;;;8.07;2.60;;;11.20;53.30;;;;;;5070334;28;20460;-72
2021/01/29 13:22:32;;;;;;;9.88;2.60;;;11.10;52.50;;;;;;5074600;28;20437;-72
2021/01/29 13:25:12;;;;;;;11.57;2.80;;;11.00;51.20;;;;;;5063364;28;20401;-71
2021/01/29 13:28:12;;;;;;;5.75;2.53;;;11.00;51.70;;;;;;5056323;28;20446;-73
2021/01/29 13:30:43;;;;;;;8.35;2.67;;;11.00;52.20;;;;;;5073218;28;20411;-71
2021/01/29 13:33:21;;;;;;;10.70;3.40;;;11.10;53.00;;;;;;5071964;28;20407;-73
2021/01/29 13:35:49;;;;;;;12.63;3.38;;;11.10;53.10;;;;;;5069045;28;20585;-72
2021/01/29 13:38:30;;;;;;;17.63;4.27;;;11.10;52.60;;;;;;5078495;28;20414;-74
2021/01/29 13:41:08;;;;;;;14.60;4.10;;;11.10;53.10;;;;;;5079692;28;20414;-73
2021/01/29 13:43:34;;;;;;;19.40;3.70;;;11.20;52.80;;;;;;5084966;28;20415;-73